sensor_id;sensor_type;location;lat;lon;timestamp;P1;P2;P0
65973;PMS5003;52729;54.906;73.316;2022-09-13T00:00:48;2.33;2.33;0.00
65973;PMS5003;52729;54.906;73.316;2022-09-13T00:04:00;2.00;2.00;0.00
65973;PMS5003;52729;54.906;73.316;2022-09-13T00:07:01;3.00;3.00;1.00
65973;PMS5003;52729;54.906;73.316;2022-09-13T00:10:11;4.00;3.33;0.00
65973;PMS5003;52729;54.906;73.316;2022-09-13T00:13:23;2.00;2.00;0.00
65973;PMS5003;52729;54.906;73.316;2022-09-13T00:16:29;4.00;3.67;0.00
65973;PMS5003;52729;54.906;73.316;2022-09-13T00:19:30;4.33;4.00;1.00
65973;PMS5003;52729;54.906;73.316;2022-09-13T00:22:31;4.00;4.00;1.00
65973;PMS5003;52729;54.906;73.316;2022-09-13T00:25:42;6.00;5.67;2.00
65973;PMS5003;52729;54.906;73.316;2022-09-13T00:28:44;6.00;4.33;2.00
65973;PMS5003;52729;54.906;73.316;2022-09-13T00:31:46;6.00;5.00;3.00
65973;PMS5003;52729;54.906;73.316;2022-09-13T00:34:47;4.00;4.00;2.00
65973;PMS5003;52729;54.906;73.316;2022-09-13T00:37:53;4.00;4.00;3.00
65973;PMS5003;52729;54.906;73.316;2022-09-13T00:41:00;4.00;3.00;1.00
65973;PMS5003;52729;54.906;73.316;2022-09-13T00:44:01;3.00;3.00;1.00
65973;PMS5003;52729;54.906;73.316;2022-09-13T00:47:02;3.00;3.00;0.00
65973;PMS5003;52729;54.906;73.316;2022-09-13T00:50:06;3.00;3.00;0.00
65973;PMS5003;52729;54.906;73.316;2022-09-13T00:53:14;4.00;2.67;0.00
65973;PMS5003;52729;54.906;73.316;2022-09-13T00:57:01;4.00;4.00;0.00
65973;PMS5003;52729;54.906;73.316;2022-09-13T00:59:53;4.00;3.67;0.00
65973;PMS5003;52729;54.906;73.316;2022-09-13T01:03:02;5.00;4.00;0.00
65973;PMS5003;52729;54.906;73.316;2022-09-13T01:06:10;2.00;1.67;0.00
65973;PMS5003;52729;54.906;73.316;2022-09-13T01:09:21;2.00;1.00;0.00
65973;PMS5003;52729;54.906;73.316;2022-09-13T01:12:31;3.00;2.00;0.00
65973;PMS5003;52729;54.906;73.316;2022-09-13T01:15:44;1.33;1.00;0.00
65973;PMS5003;52729;54.906;73.316;2022-09-13T01:18:45;3.00;2.00;0.00
65973;PMS5003;52729;54.906;73.316;2022-09-13T01:28:10;1.00;1.00;0.00
65973;PMS5003;52729;54.906;73.316;2022-09-13T01:51:38;196.67;173.00;77.00
65973;PMS5003;52729;54.906;73.316;2022-09-13T02:00:23;28.67;26.00;13.00
65973;PMS5003;52729;54.906;73.316;2022-09-13T02:03:44;17.33;15.67;4.00
65973;PMS5003;52729;54.906;73.316;2022-09-13T02:06:55;17.67;16.00;7.33
65973;PMS5003;52729;54.906;73.316;2022-09-13T02:10:15;18.00;17.67;6.33
65973;PMS5003;52729;54.906;73.316;2022-09-13T02:13:26;14.00;14.00;4.00
65973;PMS5003;52729;54.906;73.316;2022-09-13T02:16:40;14.00;11.00;4.00
65973;PMS5003;52729;54.906;73.316;2022-09-13T02:19:54;12.00;9.00;3.00
65973;PMS5003;52729;54.906;73.316;2022-09-13T02:22:57;9.33;7.67;4.00
65973;PMS5003;52729;54.906;73.316;2022-09-13T02:26:01;9.33;8.00;3.67
65973;PMS5003;52729;54.906;73.316;2022-09-13T02:29:14;6.00;6.00;3.00
65973;PMS5003;52729;54.906;73.316;2022-09-13T02:32:24;6.00;5.00;3.00
65973;PMS5003;52729;54.906;73.316;2022-09-13T02:35:30;2.33;2.00;1.00
65973;PMS5003;52729;54.906;73.316;2022-09-13T02:41:55;2.00;1.00;0.00
65973;PMS5003;52729;54.906;73.316;2022-09-13T02:44:59;1.67;0.00;0.00
65973;PMS5003;52729;54.906;73.316;2022-09-13T02:48:09;2.00;1.00;0.00
65973;PMS5003;52729;54.906;73.316;2022-09-13T02:54:43;2.00;2.00;0.00
65973;PMS5003;52729;54.906;73.316;2022-09-13T02:57:51;1.00;1.00;0.00
65973;PMS5003;52729;54.906;73.316;2022-09-13T03:00:55;0.00;0.00;0.00
65973;PMS5003;52729;54.906;73.316;2022-09-13T03:03:56;2.00;1.00;0.00
65973;PMS5003;52729;54.906;73.316;2022-09-13T03:06:57;0.00;0.00;0.00
65973;PMS5003;52729;54.906;73.316;2022-09-13T03:10:09;2.00;0.00;0.00
65973;PMS5003;52729;54.906;73.316;2022-09-13T03:13:20;1.00;0.00;0.00
65973;PMS5003;52729;54.906;73.316;2022-09-13T03:16:53;0.00;0.00;0.00
65973;PMS5003;52729;54.906;73.316;2022-09-13T03:20:01;1.00;0.00;0.00
65973;PMS5003;52729;54.906;73.316;2022-09-13T03:30:18;0.00;0.00;0.00
65973;PMS5003;52729;54.906;73.316;2022-09-13T03:32:52;0.67;0.00;0.00
65973;PMS5003;52729;54.906;73.316;2022-09-13T03:42:24;0.00;0.00;0.00
65973;PMS5003;52729;54.906;73.316;2022-09-13T03:45:34;2.00;0.00;0.00
65973;PMS5003;52729;54.906;73.316;2022-09-13T03:48:38;0.00;0.00;0.00
65973;PMS5003;52729;54.906;73.316;2022-09-13T03:51:46;1.00;1.00;0.00
65973;PMS5003;52729;54.906;73.316;2022-09-13T03:54:48;0.00;0.00;0.00
65973;PMS5003;52729;54.906;73.316;2022-09-13T03:57:49;0.00;0.00;0.00
65973;PMS5003;52729;54.906;73.316;2022-09-13T04:00:50;1.00;0.00;0.00
65973;PMS5003;52729;54.906;73.316;2022-09-13T04:03:54;1.00;0.00;0.00
65973;PMS5003;52729;54.906;73.316;2022-09-13T04:06:55;0.00;0.00;0.00
65973;PMS5003;52729;54.906;73.316;2022-09-13T04:09:56;0.00;0.00;0.00
65973;PMS5003;52729;54.906;73.316;2022-09-13T04:12:58;0.00;0.00;0.00
65973;PMS5003;52729;54.906;73.316;2022-09-13T04:16:02;0.00;0.00;0.00
65973;PMS5003;52729;54.906;73.316;2022-09-13T04:19:05;0.00;0.00;0.00
65973;PMS5003;52729;54.906;73.316;2022-09-13T04:22:16;0.00;0.00;0.00
65973;PMS5003;52729;54.906;73.316;2022-09-13T04:25:17;0.00;0.00;0.00
65973;PMS5003;52729;54.906;73.316;2022-09-13T04:28:28;0.00;0.00;0.00
65973;PMS5003;52729;54.906;73.316;2022-09-13T04:31:33;0.00;0.00;0.00
65973;PMS5003;52729;54.906;73.316;2022-09-13T04:34:34;0.00;0.00;0.00
65973;PMS5003;52729;54.906;73.316;2022-09-13T04:37:46;0.00;0.00;0.00
65973;PMS5003;52729;54.906;73.316;2022-09-13T04:40:50;0.00;0.00;0.00
65973;PMS5003;52729;54.906;73.316;2022-09-13T04:43:57;1.00;0.00;0.00
65973;PMS5003;52729;54.906;73.316;2022-09-13T04:46:58;1.33;0.00;0.00
65973;PMS5003;52729;54.906;73.316;2022-09-13T04:50:00;1.00;0.00;0.00
65973;PMS5003;52729;54.906;73.316;2022-09-13T04:53:01;0.00;0.00;0.00
65973;PMS5003;52729;54.906;73.316;2022-09-13T04:56:12;0.00;0.00;0.00
65973;PMS5003;52729;54.906;73.316;2022-09-13T04:59:25;0.00;0.00;0.00
65973;PMS5003;52729;54.906;73.316;2022-09-13T05:02:26;0.00;0.00;0.00
65973;PMS5003;52729;54.906;73.316;2022-09-13T05:05:27;0.00;0.00;0.00
65973;PMS5003;52729;54.906;73.316;2022-09-13T05:08:38;0.00;0.00;0.00
65973;PMS5003;52729;54.906;73.316;2022-09-13T05:11:39;0.00;0.00;0.00
65973;PMS5003;52729;54.906;73.316;2022-09-13T05:14:40;0.00;0.00;0.00
65973;PMS5003;52729;54.906;73.316;2022-09-13T05:17:41;0.00;0.00;0.00
65973;PMS5003;52729;54.906;73.316;2022-09-13T05:20:42;0.00;0.00;0.00
65973;PMS5003;52729;54.906;73.316;2022-09-13T05:23:49;0.00;0.00;0.00
65973;PMS5003;52729;54.906;73.316;2022-09-13T05:26:51;0.00;0.00;0.00
65973;PMS5003;52729;54.906;73.316;2022-09-13T05:29:52;0.00;0.00;0.00
65973;PMS5003;52729;54.906;73.316;2022-09-13T05:32:58;0.00;0.00;0.00
65973;PMS5003;52729;54.906;73.316;2022-09-13T05:36:08;0.00;0.00;0.00
65973;PMS5003;52729;54.906;73.316;2022-09-13T05:39:15;0.00;0.00;0.00
65973;PMS5003;52729;54.906;73.316;2022-09-13T05:42:21;0.00;0.00;0.00
65973;PMS5003;52729;54.906;73.316;2022-09-13T05:45:22;0.00;0.00;0.00
65973;PMS5003;52729;54.906;73.316;2022-09-13T05:48:28;0.00;0.00;0.00
65973;PMS5003;52729;54.906;73.316;2022-09-13T05:51:30;0.00;0.00;0.00
65973;PMS5003;52729;54.906;73.316;2022-09-13T05:54:31;0.00;0.00;0.00
65973;PMS5003;52729;54.906;73.316;2022-09-13T05:57:34;0.00;0.00;0.00
65973;PMS5003;52729;54.906;73.316;2022-09-13T06:00:36;0.00;0.00;0.00
65973;PMS5003;52729;54.906;73.316;2022-09-13T06:03:37;0.00;0.00;0.00
65973;PMS5003;52729;54.906;73.316;2022-09-13T06:06:38;0.00;0.00;0.00
65973;PMS5003;52729;54.906;73.316;2022-09-13T06:09:39;0.00;0.00;0.00
65973;PMS5003;52729;54.906;73.316;2022-09-13T06:12:41;0.00;0.00;0.00
65973;PMS5003;52729;54.906;73.316;2022-09-13T06:15:42;0.00;0.00;0.00
65973;PMS5003;52729;54.906;73.316;2022-09-13T06:18:43;0.00;0.00;0.00
65973;PMS5003;52729;54.906;73.316;2022-09-13T06:21:44;0.00;0.00;0.00
65973;PMS5003;52729;54.906;73.316;2022-09-13T06:24:45;0.00;0.00;0.00
65973;PMS5003;52729;54.906;73.316;2022-09-13T06:27:46;0.00;0.00;0.00
65973;PMS5003;52729;54.906;73.316;2022-09-13T06:31:01;0.00;0.00;0.00
65973;PMS5003;52729;54.906;73.316;2022-09-13T06:34:03;0.00;0.00;0.00
65973;PMS5003;52729;54.906;73.316;2022-09-13T06:37:04;0.00;0.00;0.00
65973;PMS5003;52729;54.906;73.316;2022-09-13T06:40:05;0.00;0.00;0.00
65973;PMS5003;52729;54.906;73.316;2022-09-13T06:43:06;0.00;0.00;0.00
65973;PMS5003;52729;54.906;73.316;2022-09-13T06:46:11;0.00;0.00;0.00
65973;PMS5003;52729;54.906;73.316;2022-09-13T06:49:13;0.00;0.00;0.00
65973;PMS5003;52729;54.906;73.316;2022-09-13T06:52:14;0.00;0.00;0.00
65973;PMS5003;52729;54.906;73.316;2022-09-13T06:55:14;0.00;0.00;0.00
65973;PMS5003;52729;54.906;73.316;2022-09-13T06:58:18;0.00;0.00;0.00
65973;PMS5003;52729;54.906;73.316;2022-09-13T07:01:23;0.00;0.00;0.00
65973;PMS5003;52729;54.906;73.316;2022-09-13T07:04:25;0.00;0.00;0.00
65973;PMS5003;52729;54.906;73.316;2022-09-13T07:07:31;0.00;0.00;0.00
65973;PMS5003;52729;54.906;73.316;2022-09-13T07:10:41;0.00;0.00;0.00
65973;PMS5003;52729;54.906;73.316;2022-09-13T07:13:42;0.00;0.00;0.00
65973;PMS5003;52729;54.906;73.316;2022-09-13T07:16:52;0.00;0.00;0.00
65973;PMS5003;52729;54.906;73.316;2022-09-13T07:19:54;0.00;0.00;0.00
65973;PMS5003;52729;54.906;73.316;2022-09-13T07:22:55;0.00;0.00;0.00
65973;PMS5003;52729;54.906;73.316;2022-09-13T07:26:06;0.00;0.00;0.00
65973;PMS5003;52729;54.906;73.316;2022-09-13T07:29:08;0.00;0.00;0.00
65973;PMS5003;52729;54.906;73.316;2022-09-13T07:32:10;0.00;0.00;0.00
65973;PMS5003;52729;54.906;73.316;2022-09-13T07:35:11;0.00;0.00;0.00
65973;PMS5003;52729;54.906;73.316;2022-09-13T07:38:12;0.00;0.00;0.00
65973;PMS5003;52729;54.906;73.316;2022-09-13T07:41:20;0.00;0.00;0.00
65973;PMS5003;52729;54.906;73.316;2022-09-13T07:44:21;0.00;0.00;0.00
65973;PMS5003;52729;54.906;73.316;2022-09-13T07:47:22;0.00;0.00;0.00
65973;PMS5003;52729;54.906;73.316;2022-09-13T07:50:23;0.00;0.00;0.00
65973;PMS5003;52729;54.906;73.316;2022-09-13T07:53:30;0.00;0.00;0.00
65973;PMS5003;52729;54.906;73.316;2022-09-13T07:56:36;0.00;0.00;0.00
65973;PMS5003;52729;54.906;73.316;2022-09-13T07:59:37;0.00;0.00;0.00
65973;PMS5003;52729;54.906;73.316;2022-09-13T08:02:38;0.00;0.00;0.00
65973;PMS5003;52729;54.906;73.316;2022-09-13T08:05:49;0.00;0.00;0.00
65973;PMS5003;52729;54.906;73.316;2022-09-13T08:08:56;0.00;0.00;0.00
65973;PMS5003;52729;54.906;73.316;2022-09-13T08:11:57;0.00;0.00;0.00
65973;PMS5003;52729;54.906;73.316;2022-09-13T08:14:58;0.00;0.00;0.00
65973;PMS5003;52729;54.906;73.316;2022-09-13T08:17:59;0.00;0.00;0.00
65973;PMS5003;52729;54.906;73.316;2022-09-13T08:21:05;0.00;0.00;0.00
65973;PMS5003;52729;54.906;73.316;2022-09-13T08:24:06;0.00;0.00;0.00
65973;PMS5003;52729;54.906;73.316;2022-09-13T08:27:08;0.00;0.00;0.00
65973;PMS5003;52729;54.906;73.316;2022-09-13T08:30:09;0.00;0.00;0.00
65973;PMS5003;52729;54.906;73.316;2022-09-13T08:33:20;0.00;0.00;0.00
65973;PMS5003;52729;54.906;73.316;2022-09-13T08:36:26;0.00;0.00;0.00
65973;PMS5003;52729;54.906;73.316;2022-09-13T08:39:28;0.00;0.00;0.00
65973;PMS5003;52729;54.906;73.316;2022-09-13T08:45:40;0.00;0.00;0.00
65973;PMS5003;52729;54.906;73.316;2022-09-13T08:48:53;0.00;0.00;0.00
65973;PMS5003;52729;54.906;73.316;2022-09-13T08:52:13;0.00;0.00;0.00
65973;PMS5003;52729;54.906;73.316;2022-09-13T08:55:24;1.00;1.00;0.00
65973;PMS5003;52729;54.906;73.316;2022-09-13T09:01:44;0.00;0.00;0.00
65973;PMS5003;52729;54.906;73.316;2022-09-13T09:04:51;0.00;0.00;0.00
65973;PMS5003;52729;54.906;73.316;2022-09-13T09:08:51;0.00;0.00;0.00
65973;PMS5003;52729;54.906;73.316;2022-09-13T09:11:29;0.00;0.00;0.00
65973;PMS5003;52729;54.906;73.316;2022-09-13T09:14:33;0.00;0.00;0.00
65973;PMS5003;52729;54.906;73.316;2022-09-13T09:20:59;1.00;0.00;0.00
65973;PMS5003;52729;54.906;73.316;2022-09-13T09:24:00;2.00;0.00;0.00
65973;PMS5003;52729;54.906;73.316;2022-09-13T09:27:14;1.00;1.00;0.00
65973;PMS5003;52729;54.906;73.316;2022-09-13T09:30:15;2.00;2.00;0.00
65973;PMS5003;52729;54.906;73.316;2022-09-13T09:36:33;1.00;1.00;0.00
65973;PMS5003;52729;54.906;73.316;2022-09-13T09:39:36;0.50;0.50;0.00
65973;PMS5003;52729;54.906;73.316;2022-09-13T09:42:46;4.50;4.00;0.00
65973;PMS5003;52729;54.906;73.316;2022-09-13T09:45:47;3.00;2.25;0.00
65973;PMS5003;52729;54.906;73.316;2022-09-13T09:48:53;2.00;2.00;0.00
65973;PMS5003;52729;54.906;73.316;2022-09-13T09:51:56;1.00;1.00;0.00
65973;PMS5003;52729;54.906;73.316;2022-09-13T09:54:59;1.00;0.00;0.00
65973;PMS5003;52729;54.906;73.316;2022-09-13T09:58:06;3.00;1.75;0.00
65973;PMS5003;52729;54.906;73.316;2022-09-13T10:01:22;2.00;2.00;0.00
65973;PMS5003;52729;54.906;73.316;2022-09-13T10:04:27;4.00;2.00;0.00
65973;PMS5003;52729;54.906;73.316;2022-09-13T10:07:32;5.50;4.00;0.00
65973;PMS5003;52729;54.906;73.316;2022-09-13T10:10:43;5.25;4.25;0.00
65973;PMS5003;52729;54.906;73.316;2022-09-13T10:13:59;5.50;5.00;1.00
65973;PMS5003;52729;54.906;73.316;2022-09-13T10:17:05;5.00;5.00;1.00
65973;PMS5003;52729;54.906;73.316;2022-09-13T10:26:20;4.25;4.25;0.00
65973;PMS5003;52729;54.906;73.316;2022-09-13T10:29:22;3.75;3.75;0.25
65973;PMS5003;52729;54.906;73.316;2022-09-13T10:32:24;4.25;4.25;1.00
65973;PMS5003;52729;54.906;73.316;2022-09-13T10:35:25;9.00;7.50;2.50
65973;PMS5003;52729;54.906;73.316;2022-09-13T10:38:37;6.00;5.25;3.00
65973;PMS5003;52729;54.906;73.316;2022-09-13T10:41:39;6.75;6.25;3.00
65973;PMS5003;52729;54.906;73.316;2022-09-13T10:44:44;9.50;9.50;4.00
65973;PMS5003;52729;54.906;73.316;2022-09-13T10:47:47;10.50;9.50;3.25
65973;PMS5003;52729;54.906;73.316;2022-09-13T10:50:59;10.75;10.00;4.00
65973;PMS5003;52729;54.906;73.316;2022-09-13T10:54:18;13.50;11.25;6.00
65973;PMS5003;52729;54.906;73.316;2022-09-13T10:57:33;15.00;13.00;4.00
65973;PMS5003;52729;54.906;73.316;2022-09-13T11:03:58;15.00;12.00;4.00
65973;PMS5003;52729;54.906;73.316;2022-09-13T11:22:49;8.00;7.50;1.00
65973;PMS5003;52729;54.906;73.316;2022-09-13T11:32:29;10.75;8.00;3.00
65973;PMS5003;52729;54.906;73.316;2022-09-13T11:35:41;8.00;8.00;2.75
65973;PMS5003;52729;54.906;73.316;2022-09-13T11:42:23;11.75;8.25;3.75
65973;PMS5003;52729;54.906;73.316;2022-09-13T11:45:29;11.75;9.25;6.00
65973;PMS5003;52729;54.906;73.316;2022-09-13T11:55:48;11.00;8.75;4.25
65973;PMS5003;52729;54.906;73.316;2022-09-13T11:59:00;13.50;8.50;3.00
65973;PMS5003;52729;54.906;73.316;2022-09-13T12:02:26;10.75;8.50;4.00
65973;PMS5003;52729;54.906;73.316;2022-09-13T12:05:33;11.00;9.00;2.75
65973;PMS5003;52729;54.906;73.316;2022-09-13T12:08:41;12.50;10.25;5.00
65973;PMS5003;52729;54.906;73.316;2022-09-13T12:12:02;12.00;10.00;5.50
65973;PMS5003;52729;54.906;73.316;2022-09-13T12:18:20;11.00;10.50;5.25
65973;PMS5003;52729;54.906;73.316;2022-09-13T12:21:31;13.50;11.00;5.75
65973;PMS5003;52729;54.906;73.316;2022-09-13T12:24:41;14.50;12.75;5.00
65973;PMS5003;52729;54.906;73.316;2022-09-13T12:31:06;16.00;15.00;7.00
65973;PMS5003;52729;54.906;73.316;2022-09-13T12:34:18;17.25;16.25;6.50
65973;PMS5003;52729;54.906;73.316;2022-09-13T13:00:28;40.25;31.25;19.75
65973;PMS5003;52729;54.906;73.316;2022-09-13T13:03:32;47.50;35.75;21.25
65973;PMS5003;52729;54.906;73.316;2022-09-13T13:09:54;51.50;40.00;25.00
65973;PMS5003;52729;54.906;73.316;2022-09-13T13:13:08;54.50;42.50;26.75
65973;PMS5003;52729;54.906;73.316;2022-09-13T13:16:32;55.25;41.75;26.75
65973;PMS5003;52729;54.906;73.316;2022-09-13T13:19:32;57.50;43.75;27.50
65973;PMS5003;52729;54.906;73.316;2022-09-13T13:26:03;64.50;50.50;30.00
65973;PMS5003;52729;54.906;73.316;2022-09-13T13:29:18;65.00;53.00;31.00
65973;PMS5003;52729;54.906;73.316;2022-09-13T13:32:20;61.00;49.50;30.00
65973;PMS5003;52729;54.906;73.316;2022-09-13T13:35:27;62.00;49.00;30.00
65973;PMS5003;52729;54.906;73.316;2022-09-13T13:38:35;58.50;46.25;28.00
65973;PMS5003;52729;54.906;73.316;2022-09-13T13:45:15;54.50;42.50;27.00
65973;PMS5003;52729;54.906;73.316;2022-09-13T13:48:23;56.00;44.00;28.00
65973;PMS5003;52729;54.906;73.316;2022-09-13T13:51:38;52.50;40.50;26.25
65973;PMS5003;52729;54.906;73.316;2022-09-13T14:00:57;48.00;39.50;24.00
65973;PMS5003;52729;54.906;73.316;2022-09-13T14:20:17;46.25;36.75;23.00
65973;PMS5003;52729;54.906;73.316;2022-09-13T14:23:19;40.75;31.50;20.00
65973;PMS5003;52729;54.906;73.316;2022-09-13T14:26:22;40.50;31.00;20.00
65973;PMS5003;52729;54.906;73.316;2022-09-13T14:29:33;42.50;34.50;21.00
65973;PMS5003;52729;54.906;73.316;2022-09-13T14:32:47;41.50;33.75;21.00
65973;PMS5003;52729;54.906;73.316;2022-09-13T14:36:04;43.50;34.00;21.00
65973;PMS5003;52729;54.906;73.316;2022-09-13T14:39:07;49.25;39.00;24.25
65973;PMS5003;52729;54.906;73.316;2022-09-13T14:42:14;52.75;41.75;26.00
65973;PMS5003;52729;54.906;73.316;2022-09-13T14:45:17;47.25;39.00;25.00
65973;PMS5003;52729;54.906;73.316;2022-09-13T14:48:26;45.00;36.00;24.00
65973;PMS5003;52729;54.906;73.316;2022-09-13T14:51:29;46.50;37.50;24.50
65973;PMS5003;52729;54.906;73.316;2022-09-13T14:54:35;49.00;39.00;24.00
65973;PMS5003;52729;54.906;73.316;2022-09-13T14:57:38;50.00;40.50;25.00
65973;PMS5003;52729;54.906;73.316;2022-09-13T15:01:02;48.00;38.00;24.00
65973;PMS5003;52729;54.906;73.316;2022-09-13T15:04:05;50.50;40.00;25.00
65973;PMS5003;52729;54.906;73.316;2022-09-13T15:07:15;49.00;38.50;25.00
65973;PMS5003;52729;54.906;73.316;2022-09-13T15:10:32;46.00;36.00;24.00
65973;PMS5003;52729;54.906;73.316;2022-09-13T15:13:43;47.50;37.50;25.00
65973;PMS5003;52729;54.906;73.316;2022-09-13T15:16:46;46.50;37.50;24.00
65973;PMS5003;52729;54.906;73.316;2022-09-13T15:19:48;42.50;35.50;22.25
65973;PMS5003;52729;54.906;73.316;2022-09-13T15:22:53;46.75;37.50;23.50
65973;PMS5003;52729;54.906;73.316;2022-09-13T15:26:04;50.50;40.25;25.00
65973;PMS5003;52729;54.906;73.316;2022-09-13T15:29:11;44.00;35.00;22.00
65973;PMS5003;52729;54.906;73.316;2022-09-13T15:32:30;125.50;115.50;65.25
65973;PMS5003;52729;54.906;73.316;2022-09-13T15:35:42;101.75;94.75;56.00
65973;PMS5003;52729;54.906;73.316;2022-09-13T15:39:10;60.75;49.75;30.75
65973;PMS5003;52729;54.906;73.316;2022-09-13T15:42:14;59.00;46.75;29.00
65973;PMS5003;52729;54.906;73.316;2022-09-13T15:45:15;55.00;43.50;27.00
65973;PMS5003;52729;54.906;73.316;2022-09-13T15:48:23;49.00;39.00;24.00
65973;PMS5003;52729;54.906;73.316;2022-09-13T15:51:24;47.75;38.75;25.00
65973;PMS5003;52729;54.906;73.316;2022-09-13T15:54:33;46.50;37.00;23.50
65973;PMS5003;52729;54.906;73.316;2022-09-13T15:57:41;50.00;40.00;25.00
65973;PMS5003;52729;54.906;73.316;2022-09-13T16:00:42;49.50;39.50;26.00
65973;PMS5003;52729;54.906;73.316;2022-09-13T16:03:48;45.00;36.50;23.00
65973;PMS5003;52729;54.906;73.316;2022-09-13T16:06:49;49.25;39.50;25.00
65973;PMS5003;52729;54.906;73.316;2022-09-13T16:10:00;48.50;39.50;24.50
65973;PMS5003;52729;54.906;73.316;2022-09-13T16:13:10;47.50;38.50;24.00
65973;PMS5003;52729;54.906;73.316;2022-09-13T16:16:17;47.50;39.50;25.00
65973;PMS5003;52729;54.906;73.316;2022-09-13T16:19:20;46.50;38.50;24.00
65973;PMS5003;52729;54.906;73.316;2022-09-13T16:22:26;47.50;39.50;24.50
65973;PMS5003;52729;54.906;73.316;2022-09-13T16:25:27;50.25;40.25;24.75
65973;PMS5003;52729;54.906;73.316;2022-09-13T16:28:33;50.25;40.75;25.00
65973;PMS5003;52729;54.906;73.316;2022-09-13T16:31:45;48.50;39.00;24.50
65973;PMS5003;52729;54.906;73.316;2022-09-13T16:34:48;51.00;40.50;26.00
65973;PMS5003;52729;54.906;73.316;2022-09-13T16:37:49;50.00;41.00;26.00
65973;PMS5003;52729;54.906;73.316;2022-09-13T16:40:51;50.25;40.50;25.75
65973;PMS5003;52729;54.906;73.316;2022-09-13T16:43:53;50.75;40.75;25.75
65973;PMS5003;52729;54.906;73.316;2022-09-13T16:46:54;48.75;39.50;25.00
65973;PMS5003;52729;54.906;73.316;2022-09-13T16:49:55;46.00;39.00;25.00
65973;PMS5003;52729;54.906;73.316;2022-09-13T16:52:56;47.75;38.50;25.00
65973;PMS5003;52729;54.906;73.316;2022-09-13T16:56:11;45.25;36.25;24.00
65973;PMS5003;52729;54.906;73.316;2022-09-13T16:59:13;33.00;29.25;18.75
65973;PMS5003;52729;54.906;73.316;2022-09-13T17:02:26;34.50;28.75;18.75
65973;PMS5003;52729;54.906;73.316;2022-09-13T17:05:33;33.00;28.00;17.00
65973;PMS5003;52729;54.906;73.316;2022-09-13T17:08:36;27.75;25.00;17.00
65973;PMS5003;52729;54.906;73.316;2022-09-13T17:11:47;26.00;24.75;16.00
65973;PMS5003;52729;54.906;73.316;2022-09-13T17:14:48;26.00;23.00;14.00
65973;PMS5003;52729;54.906;73.316;2022-09-13T17:17:55;25.50;23.00;15.50
65973;PMS5003;52729;54.906;73.316;2022-09-13T17:20:57;28.00;26.50;17.00
65973;PMS5003;52729;54.906;73.316;2022-09-13T17:24:08;24.50;23.00;15.00
65973;PMS5003;52729;54.906;73.316;2022-09-13T17:27:15;29.25;25.50;16.50
65973;PMS5003;52729;54.906;73.316;2022-09-13T17:30:16;32.67;27.33;18.00
65973;PMS5003;52729;54.906;73.316;2022-09-13T17:33:17;24.25;24.25;13.00
65973;PMS5003;52729;54.906;73.316;2022-09-13T17:36:18;19.00;19.00;8.00
65973;PMS5003;52729;54.906;73.316;2022-09-13T17:39:25;16.50;16.00;7.00
65973;PMS5003;52729;54.906;73.316;2022-09-13T17:42:29;16.00;14.00;6.00
65973;PMS5003;52729;54.906;73.316;2022-09-13T17:45:30;13.50;10.00;5.00
65973;PMS5003;52729;54.906;73.316;2022-09-13T17:48:32;12.00;9.50;6.00
65973;PMS5003;52729;54.906;73.316;2022-09-13T17:51:33;13.00;10.50;5.00
65973;PMS5003;52729;54.906;73.316;2022-09-13T17:54:43;11.00;9.75;5.00
65973;PMS5003;52729;54.906;73.316;2022-09-13T17:57:46;11.00;9.33;5.33
65973;PMS5003;52729;54.906;73.316;2022-09-13T18:00:48;12.50;11.50;6.00
65973;PMS5003;52729;54.906;73.316;2022-09-13T18:03:53;12.00;10.00;5.75
65973;PMS5003;52729;54.906;73.316;2022-09-13T18:07:16;12.00;8.00;5.00
65973;PMS5003;52729;54.906;73.316;2022-09-13T18:10:17;13.00;9.75;4.50
65973;PMS5003;52729;54.906;73.316;2022-09-13T18:13:28;12.25;9.00;4.50
65973;PMS5003;52729;54.906;73.316;2022-09-13T18:16:39;12.00;9.50;4.25
65973;PMS5003;52729;54.906;73.316;2022-09-13T18:19:46;14.00;12.00;5.00
65973;PMS5003;52729;54.906;73.316;2022-09-13T18:22:47;12.00;10.25;3.75
65973;PMS5003;52729;54.906;73.316;2022-09-13T18:26:04;12.33;8.67;3.67
65973;PMS5003;52729;54.906;73.316;2022-09-13T18:29:11;12.75;8.25;4.25
65973;PMS5003;52729;54.906;73.316;2022-09-13T18:32:13;13.00;9.75;4.00
65973;PMS5003;52729;54.906;73.316;2022-09-13T18:35:14;8.33;8.00;4.00
65973;PMS5003;52729;54.906;73.316;2022-09-13T18:38:16;8.75;8.75;4.75
65973;PMS5003;52729;54.906;73.316;2022-09-13T18:41:23;11.25;8.00;3.00
65973;PMS5003;52729;54.906;73.316;2022-09-13T18:44:38;12.25;8.75;3.25
65973;PMS5003;52729;54.906;73.316;2022-09-13T18:47:39;10.00;8.33;4.00
65973;PMS5003;52729;54.906;73.316;2022-09-13T18:50:45;8.25;7.00;3.00
65973;PMS5003;52729;54.906;73.316;2022-09-13T18:53:56;9.00;6.25;4.00
65973;PMS5003;52729;54.906;73.316;2022-09-13T18:56:58;8.00;6.00;4.00
65973;PMS5003;52729;54.906;73.316;2022-09-13T19:00:00;6.00;5.00;2.00
65973;PMS5003;52729;54.906;73.316;2022-09-13T19:03:03;6.25;6.25;0.25
65973;PMS5003;52729;54.906;73.316;2022-09-13T19:06:16;7.00;6.25;3.00
65973;PMS5003;52729;54.906;73.316;2022-09-13T19:09:22;5.00;5.00;2.00
65973;PMS5003;52729;54.906;73.316;2022-09-13T19:12:24;7.00;6.25;3.00
65973;PMS5003;52729;54.906;73.316;2022-09-13T19:15:25;8.00;7.00;2.00
65973;PMS5003;52729;54.906;73.316;2022-09-13T19:18:37;6.00;5.00;2.00
65973;PMS5003;52729;54.906;73.316;2022-09-13T19:21:38;6.50;5.00;3.00
65973;PMS5003;52729;54.906;73.316;2022-09-13T19:24:49;7.00;5.75;3.00
65973;PMS5003;52729;54.906;73.316;2022-09-13T19:27:52;9.50;8.75;3.00
65973;PMS5003;52729;54.906;73.316;2022-09-13T19:30:54;15.50;13.25;7.25
65973;PMS5003;52729;54.906;73.316;2022-09-13T19:34:04;18.50;16.25;7.00
65973;PMS5003;52729;54.906;73.316;2022-09-13T19:37:06;18.00;17.25;8.50
65973;PMS5003;52729;54.906;73.316;2022-09-13T19:40:07;18.00;15.50;7.00
65973;PMS5003;52729;54.906;73.316;2022-09-13T19:43:08;20.25;17.50;7.50
65973;PMS5003;52729;54.906;73.316;2022-09-13T19:46:11;21.00;18.75;8.75
65973;PMS5003;52729;54.906;73.316;2022-09-13T19:49:22;23.25;20.75;9.50
65973;PMS5003;52729;54.906;73.316;2022-09-13T19:52:24;21.25;20.50;10.50
65973;PMS5003;52729;54.906;73.316;2022-09-13T19:55:30;20.75;20.50;12.00
65973;PMS5003;52729;54.906;73.316;2022-09-13T19:58:32;18.00;16.50;6.00
65973;PMS5003;52729;54.906;73.316;2022-09-13T20:01:37;13.00;11.25;6.00
65973;PMS5003;52729;54.906;73.316;2022-09-13T20:04:39;7.00;6.00;3.00
65973;PMS5003;52729;54.906;73.316;2022-09-13T20:07:42;7.00;7.00;3.00
65973;PMS5003;52729;54.906;73.316;2022-09-13T20:10:53;8.00;8.00;4.00
65973;PMS5003;52729;54.906;73.316;2022-09-13T20:13:55;7.00;7.00;4.75
65973;PMS5003;52729;54.906;73.316;2022-09-13T20:17:09;10.50;9.75;4.00
65973;PMS5003;52729;54.906;73.316;2022-09-13T20:20:10;8.50;8.25;4.00
65973;PMS5003;52729;54.906;73.316;2022-09-13T20:23:20;8.50;8.00;4.50
65973;PMS5003;52729;54.906;73.316;2022-09-13T20:26:23;7.50;7.50;3.75
65973;PMS5003;52729;54.906;73.316;2022-09-13T20:29:27;13.00;10.25;5.00